createdAt,value
2019-03-24T00:02:28.182Z,8.43
2019-03-24T00:06:33.518Z,8.77
2019-03-24T00:10:39.026Z,9.07
2019-03-24T00:14:44.754Z,9.17
2019-03-24T00:18:49.834Z,9.93
2019-03-24T00:22:54.911Z,8.83
2019-03-24T00:27:00.680Z,9.27
2019-03-24T00:31:05.749Z,9.23
2019-03-24T00:35:11.606Z,8.70
2019-03-24T00:39:16.718Z,8.43
2019-03-24T00:43:23.230Z,8.97
2019-03-24T00:47:27.927Z,8.87
2019-03-24T00:51:32.786Z,8.73
2019-03-24T00:55:38.672Z,8.30
2019-03-24T00:59:43.544Z,9.20
2019-03-24T01:03:48.955Z,9.47
2019-03-24T01:07:54.827Z,8.93
2019-03-24T01:11:59.779Z,8.37
2019-03-24T01:16:05.373Z,8.83
2019-03-24T01:20:10.394Z,8.90
2019-03-24T01:24:16.039Z,8.37
2019-03-24T01:28:21.914Z,8.73
2019-03-24T01:32:26.670Z,9.77
2019-03-24T01:36:32.550Z,8.50
2019-03-24T01:40:38.272Z,9.17
2019-03-24T01:44:44.306Z,9.20
2019-03-24T01:48:49.228Z,9.17
2019-03-24T01:52:54.132Z,8.27
2019-03-24T01:56:59.144Z,8.93
2019-03-24T02:01:04.539Z,9.30
2019-03-24T02:05:10.471Z,8.63
2019-03-24T02:09:15.680Z,8.90
2019-03-24T02:13:20.402Z,10.50
2019-03-24T02:17:26.197Z,10.30
2019-03-24T02:21:32.232Z,9.60
2019-03-24T02:25:37.406Z,10.40
2019-03-24T02:29:42.262Z,10.00
2019-03-24T02:33:47.263Z,10.70
2019-03-24T02:37:52.391Z,9.67
2019-03-24T02:41:57.374Z,10.03
2019-03-24T02:46:04.452Z,10.27
2019-03-24T02:50:11.050Z,9.67
2019-03-24T02:54:15.889Z,9.20
2019-03-24T02:58:20.652Z,9.60
2019-03-24T03:02:25.401Z,9.10
2019-03-24T03:06:30.156Z,9.77
2019-03-24T03:10:34.963Z,9.57
2019-03-24T03:14:40.004Z,10.03
2019-03-24T03:18:46.000Z,9.60
2019-03-24T03:22:51.137Z,8.23
2019-03-24T03:26:56.575Z,8.57
2019-03-24T03:31:01.415Z,9.20
2019-03-24T03:35:07.681Z,9.23
2019-03-24T03:39:12.551Z,10.00
2019-03-24T03:43:17.367Z,8.73
2019-03-24T03:47:22.257Z,8.30
2019-03-24T03:51:27.121Z,9.27
2019-03-24T03:55:32.075Z,8.97
2019-03-24T03:59:36.942Z,8.93
2019-03-24T04:03:41.745Z,9.43
2019-03-24T04:07:46.616Z,8.00
2019-03-24T04:11:51.375Z,9.90
2019-03-24T04:15:56.320Z,9.80
2019-03-24T04:20:01.212Z,9.10
2019-03-24T04:24:05.996Z,9.67
2019-03-24T04:28:10.882Z,10.43
2019-03-24T04:32:15.830Z,8.70
2019-03-24T04:36:20.661Z,8.87
2019-03-24T04:40:25.406Z,7.73
2019-03-24T04:44:30.229Z,8.00
2019-03-24T04:48:35.019Z,8.80
2019-03-24T04:52:39.773Z,8.77
2019-03-24T04:56:44.596Z,8.57
2019-03-24T05:00:49.298Z,9.13
2019-03-24T05:04:54.295Z,8.93
2019-03-24T05:08:59.627Z,9.07
2019-03-24T05:13:04.361Z,9.00
2019-03-24T05:17:09.169Z,8.67
2019-03-24T05:21:14.016Z,8.23
2019-03-24T05:25:18.876Z,8.50
2019-03-24T05:29:23.616Z,8.73
2019-03-24T05:33:28.408Z,8.83
2019-03-24T05:37:33.618Z,8.80
2019-03-24T05:41:38.475Z,9.03
2019-03-24T05:45:43.191Z,8.47
2019-03-24T05:49:48.072Z,9.60
2019-03-24T05:53:52.904Z,9.20
2019-03-24T05:57:57.953Z,9.80
2019-03-24T06:02:02.718Z,8.63
2019-03-24T06:06:07.848Z,8.43
2019-03-24T06:10:12.854Z,9.73
2019-03-24T06:14:17.730Z,8.07
2019-03-24T06:18:22.619Z,10.87
2019-03-24T06:22:28.076Z,9.87
2019-03-24T06:26:33.596Z,10.77
2019-03-24T06:30:38.348Z,10.77
2019-03-24T06:34:43.166Z,10.30
2019-03-24T06:38:48.672Z,10.00
2019-03-24T06:42:54.795Z,11.97
2019-03-24T06:47:00.203Z,11.43
2019-03-24T06:51:05.311Z,10.93
2019-03-24T06:55:10.407Z,11.17
2019-03-24T06:59:16.163Z,11.50
2019-03-24T07:03:21.202Z,11.00
2019-03-24T07:07:27.404Z,12.30
2019-03-24T07:11:33.077Z,12.57
2019-03-24T07:15:38.471Z,12.43
2019-03-24T07:19:43.518Z,12.17
2019-03-24T07:23:50.364Z,12.60
2019-03-24T07:27:55.156Z,11.27
2019-03-24T07:32:00.088Z,12.23
2019-03-24T07:36:04.960Z,11.40
2019-03-24T07:40:11.331Z,12.37
2019-03-24T07:44:17.729Z,10.93
2019-03-24T07:48:23.561Z,11.73
2019-03-24T07:52:29.583Z,10.43
2019-03-24T07:56:34.430Z,11.57
2019-03-24T08:00:39.937Z,11.03
2019-03-24T08:04:44.938Z,11.50
2019-03-24T08:08:51.055Z,9.87
2019-03-24T08:12:56.542Z,10.53
2019-03-24T08:17:02.782Z,11.33
2019-03-24T08:21:07.712Z,11.57
2019-03-24T08:25:12.722Z,10.63
2019-03-24T08:29:17.534Z,11.50
2019-03-24T08:33:22.551Z,12.50
2019-03-24T08:37:28.483Z,12.47
2019-03-24T08:41:33.877Z,11.10
2019-03-24T08:45:38.970Z,10.57
2019-03-24T08:49:44.038Z,11.00
2019-03-24T08:53:49.177Z,12.57
2019-03-24T08:57:54.918Z,12.00
2019-03-24T09:02:00.965Z,11.40
2019-03-24T09:06:07.134Z,11.47
2019-03-24T09:10:13.244Z,12.90
2019-03-24T09:14:18.909Z,11.97
2019-03-24T09:18:25.681Z,11.20
2019-03-24T09:22:30.916Z,11.40
2019-03-24T09:26:36.170Z,11.57
2019-03-24T09:30:41.850Z,11.77
2019-03-24T09:34:47.298Z,12.40
2019-03-24T09:38:52.734Z,11.60
2019-03-24T09:42:59.736Z,11.87
2019-03-24T09:47:05.650Z,12.00
2019-03-24T09:51:10.808Z,12.53
2019-03-24T09:55:18.579Z,12.60
2019-03-24T09:59:24.540Z,11.40
2019-03-24T10:03:29.572Z,11.57
2019-03-24T10:07:34.803Z,10.80
2019-03-24T10:11:39.977Z,12.27
2019-03-24T10:15:46.292Z,11.97
2019-03-24T10:19:51.170Z,10.87
2019-03-24T10:23:56.406Z,11.87
2019-03-24T10:28:01.470Z,11.40
2019-03-24T10:32:08.285Z,12.27
2019-03-24T10:36:14.337Z,11.70
2019-03-24T10:40:28.519Z,11.73
2019-03-24T10:44:28.262Z,11.33
2019-03-24T10:48:34.193Z,11.43
2019-03-24T10:52:40.590Z,12.53
2019-03-24T10:56:48.741Z,10.80
2019-03-24T11:01:16.679Z,11.20
2019-03-24T11:05:21.802Z,11.17
2019-03-24T11:09:27.333Z,11.43
2019-03-24T11:13:32.252Z,11.07
2019-03-24T11:17:37.447Z,11.63
2019-03-24T11:21:42.695Z,11.40
2019-03-24T11:25:48.040Z,10.83
2019-03-24T11:29:53.010Z,11.40
2019-03-24T11:33:58.036Z,11.30
2019-03-24T11:38:03.957Z,10.47
2019-03-24T11:42:30.620Z,10.80
2019-03-24T11:46:35.610Z,9.80
2019-03-24T11:50:42.722Z,11.37
2019-03-24T11:54:49.231Z,10.10
2019-03-24T11:58:54.432Z,9.97
2019-03-24T12:02:59.376Z,10.13
2019-03-24T12:07:04.822Z,10.53
2019-03-24T12:11:10.579Z,10.57
2019-03-24T12:15:15.706Z,10.00
2019-03-24T12:19:22.527Z,9.23
2019-03-24T12:23:29.443Z,9.47
2019-03-24T12:27:36.496Z,10.73
2019-03-24T12:31:42.873Z,10.50
2019-03-24T12:35:48.987Z,10.00
2019-03-24T12:39:54.089Z,11.03
2019-03-24T12:44:01.466Z,10.60
2019-03-24T12:48:06.471Z,10.00
2019-03-24T12:52:13.198Z,9.90
2019-03-24T12:56:18.060Z,9.37
2019-03-24T13:00:38.833Z,8.73
2019-03-24T13:04:44.353Z,9.23
2019-03-24T13:08:50.067Z,9.63
2019-03-24T13:12:55.588Z,9.60
2019-03-24T13:17:01.540Z,9.35
2019-03-24T13:21:06.911Z,8.38
2019-03-24T13:25:12.716Z,8.55
2019-03-24T13:29:18.333Z,8.20
2019-03-24T13:33:23.877Z,7.72
2019-03-24T13:37:29.473Z,9.30
2019-03-24T13:41:34.974Z,8.83
2019-03-24T13:45:40.505Z,7.80
2019-03-24T13:49:48.957Z,8.40
2019-03-24T13:53:54.558Z,8.63
2019-03-24T13:58:03.223Z,8.15
2019-03-24T14:02:09.321Z,8.67
2019-03-24T14:06:18.407Z,7.17
2019-03-24T14:10:27.293Z,6.90
2019-03-24T14:14:32.667Z,7.58
2019-03-24T14:18:43.841Z,7.23
2019-03-24T14:22:48.711Z,8.20
2019-03-24T14:26:54.024Z,7.12
2019-03-24T14:31:01.552Z,7.37
2019-03-24T14:35:06.897Z,7.95
2019-03-24T14:39:11.733Z,7.30
2019-03-24T14:43:17.001Z,8.00
2019-03-24T14:47:23.985Z,7.57
2019-03-24T14:51:36.379Z,8.23
2019-03-24T14:55:41.619Z,7.77
2019-03-24T14:59:47.084Z,8.03
2019-03-24T15:03:52.301Z,7.78
2019-03-24T15:07:57.898Z,7.20
2019-03-24T15:12:13.952Z,8.00
2019-03-24T15:16:18.749Z,7.80
2019-03-24T15:20:30.230Z,7.67
2019-03-24T15:24:36.588Z,7.27
2019-03-24T15:28:42.279Z,7.83
2019-03-24T15:37:17.634Z,7.70
2019-03-24T15:41:22.847Z,7.23
2019-03-24T15:45:28.359Z,8.27
2019-03-24T15:49:33.999Z,8.00
2019-03-24T15:53:39.096Z,7.37
2019-03-24T15:57:44.317Z,7.80
2019-03-24T16:01:49.451Z,7.25
2019-03-24T16:05:56.344Z,8.33
2019-03-24T16:10:06.287Z,8.37
2019-03-24T16:14:16.089Z,8.40
2019-03-24T16:18:22.587Z,8.40
2019-03-24T16:22:30.952Z,8.00
2019-03-24T16:26:37.654Z,8.40
2019-03-24T16:30:42.782Z,7.95
2019-03-24T16:34:47.586Z,8.37
2019-03-24T16:39:02.944Z,8.30
2019-03-24T16:43:02.660Z,9.13
2019-03-24T16:56:25.890Z,7.13
2019-03-24T17:00:34.245Z,7.27
2019-03-24T17:05:07.739Z,7.67
2019-03-24T17:09:15.451Z,6.17
2019-03-24T17:18:15.779Z,7.83
2019-03-24T17:22:23.180Z,7.17
2019-03-24T17:26:28.998Z,6.97
2019-03-24T17:30:35.536Z,6.90
2019-03-24T17:34:40.805Z,7.13
2019-03-24T17:42:59.919Z,6.37
2019-03-24T17:47:05.826Z,6.03
2019-03-24T17:51:13.097Z,6.33
2019-03-24T17:55:27.485Z,6.33
2019-03-24T18:04:31.789Z,7.07
2019-03-24T18:18:29.928Z,6.30
2019-03-24T18:27:42.394Z,6.27
2019-03-24T18:37:14.122Z,6.07
2019-03-24T18:46:51.752Z,6.10
2019-03-24T18:56:27.913Z,6.00
2019-03-24T19:00:35.036Z,6.37
2019-03-24T19:04:42.520Z,6.40
2019-03-24T19:08:51.521Z,5.63
2019-03-24T19:17:52.506Z,5.30
2019-03-24T19:22:42.564Z,5.83
2019-03-24T19:32:07.609Z,7.00
2019-03-24T19:36:13.751Z,7.30
2019-03-24T19:40:30.103Z,7.70
2019-03-24T19:44:35.569Z,8.90
2019-03-24T19:48:41.751Z,10.17
2019-03-24T19:52:47.516Z,11.37
2019-03-24T19:57:14.854Z,10.83
2019-03-24T20:01:20.969Z,11.80
2019-03-24T20:05:34.482Z,11.47
2019-03-24T20:09:45.204Z,11.90
2019-03-24T20:18:08.732Z,11.33
2019-03-24T20:22:13.675Z,12.63
2019-03-24T20:26:18.906Z,12.50
2019-03-24T20:30:23.802Z,12.47
2019-03-24T20:34:28.802Z,12.97
2019-03-24T20:38:33.853Z,12.67
2019-03-24T20:42:38.783Z,13.50
2019-03-24T20:46:44.225Z,13.07
2019-03-24T20:50:49.562Z,13.67
2019-03-24T20:54:54.561Z,13.33
2019-03-24T20:58:59.585Z,13.13
2019-03-24T21:03:05.425Z,12.93
2019-03-24T21:07:10.218Z,13.57
2019-03-24T21:11:15.071Z,13.27
2019-03-24T21:15:19.881Z,12.80
2019-03-24T21:19:24.709Z,14.33
2019-03-24T21:23:30.081Z,13.37
2019-03-24T21:27:34.961Z,13.47
2019-03-24T21:31:40.214Z,13.57
2019-03-24T21:35:45.107Z,13.47
2019-03-24T21:39:50.244Z,13.57
2019-03-24T21:43:55.227Z,13.53
2019-03-24T21:48:00.020Z,12.90
2019-03-24T21:52:05.258Z,12.87
2019-03-24T21:56:10.146Z,12.93
2019-03-24T22:00:16.726Z,13.07
2019-03-24T22:04:21.680Z,13.63
2019-03-24T22:08:26.536Z,12.70
2019-03-24T22:12:31.331Z,12.57
2019-03-24T22:16:36.217Z,11.23
2019-03-24T22:20:48.782Z,12.53
2019-03-24T22:24:49.143Z,13.20
2019-03-24T22:28:54.059Z,13.17
2019-03-24T22:32:58.832Z,14.50
2019-03-24T22:37:15.191Z,13.60
2019-03-24T22:41:10.436Z,13.13
2019-03-24T22:45:15.409Z,13.50
2019-03-24T22:49:20.510Z,13.60
2019-03-24T22:53:25.273Z,13.93
2019-03-24T22:57:32.578Z,13.90
2019-03-24T23:01:36.733Z,12.40
2019-03-24T23:05:41.451Z,12.03
2019-03-24T23:09:46.458Z,11.47
2019-03-24T23:13:51.186Z,11.33
2019-03-24T23:17:56.066Z,10.30
2019-03-24T23:22:01.199Z,10.50
2019-03-24T23:26:06.196Z,10.73
2019-03-24T23:30:11.339Z,12.33
2019-03-24T23:34:16.233Z,10.97
2019-03-24T23:38:21.062Z,12.23
2019-03-24T23:42:25.879Z,10.37
2019-03-24T23:46:30.666Z,10.17
2019-03-24T23:50:35.659Z,10.30
2019-03-24T23:54:40.442Z,10.87
2019-03-24T23:58:45.292Z,10.23
